Time;durP1;ratioP1;P1;durP2;ratioP2;P2;SDS_P1;SDS_P2;PMS_P1;PMS_P2;Temp;Humidity;BMP_temperature;BMP_pressure;BME280_temperature;BME280_humidity;BME280_pressure;Samples;Min_cycle;Max_cycle;Signal;HPM_P1;HPM_P2
2022/10/01 00:02:03;;;;;;;24.93;9.60;;;;;;;7.36;100.00;96079.75;5038972;28;20205;-68
2022/10/01 00:04:29;;;;;;;26.97;11.23;;;;;;;7.40;100.00;96078.44;5037856;28;20247;-68
2022/10/01 00:06:58;;;;;;;23.30;9.73;;;;;;;7.42;100.00;96072.06;5039068;28;20209;-68
2022/10/01 00:09:24;;;;;;;25.57;9.93;;;;;;;7.56;100.00;96068.78;5038574;28;20217;-68
2022/10/01 00:11:52;;;;;;;22.47;9.73;;;;;;;7.58;100.00;96064.19;5038760;28;20197;-68
2022/10/01 00:14:19;;;;;;;24.77;10.00;;;;;;;7.64;100.00;96055.69;5038143;28;20197;-68
2022/10/01 00:16:46;;;;;;;23.30;10.47;;;;;;;7.79;100.00;96054.06;5038797;28;20205;-68
2022/10/01 00:19:14;;;;;;;25.13;11.13;;;;;;;7.75;100.00;96059.78;5038630;28;20656;-68
2022/10/01 00:21:41;;;;;;;25.03;10.10;;;;;;;7.79;100.00;96061.91;5038783;28;20205;-68
2022/10/01 00:24:12;;;;;;;23.40;10.83;;;;;;;7.89;100.00;96058.13;5038307;28;20205;-68
2022/10/01 00:26:38;;;;;;;21.60;9.57;;;;;;;7.87;100.00;96057.47;5038413;28;20674;-68
2022/10/01 00:29:08;;;;;;;24.20;9.53;;;;;;;7.91;100.00;96052.72;5037905;28;20439;-68
2022/10/01 00:31:35;;;;;;;24.67;10.57;;;;;;;7.90;100.00;96053.69;5038397;28;20201;-68
2022/10/01 00:34:03;;;;;;;25.47;10.53;;;;;;;8.06;100.00;96044.00;5037790;28;20220;-68
2022/10/01 00:36:31;;;;;;;25.47;10.77;;;;;;;7.95;100.00;96054.84;5038650;28;20216;-68
2022/10/01 00:38:59;;;;;;;23.00;10.17;;;;;;;8.05;100.00;96046.81;5039019;28;20201;-68
2022/10/01 00:41:26;;;;;;;26.70;10.40;;;;;;;8.11;100.00;96046.94;5037687;28;20225;-68
2022/10/01 00:43:58;;;;;;;25.63;10.73;;;;;;;8.22;100.00;96048.44;5037017;28;20757;-68
2022/10/01 00:46:28;;;;;;;21.20;9.80;;;;;;;8.25;100.00;96045.47;5038902;28;20212;-69
2022/10/01 00:49:00;;;;;;;25.43;10.73;;;;;;;8.22;100.00;96051.06;5037751;28;20245;-69
2022/10/01 00:51:32;;;;;;;24.93;10.43;;;;;;;8.27;100.00;96052.19;5038126;28;20225;-69
2022/10/01 00:54:07;;;;;;;27.00;10.17;;;;;;;8.24;100.00;96052.53;5037575;28;20197;-69
2022/10/01 00:56:34;;;;;;;22.03;10.20;;;;;;;8.21;100.00;96055.50;5037968;28;20650;-69
2022/10/01 00:59:01;;;;;;;23.43;10.10;;;;;;;8.21;100.00;96059.91;5037406;28;20274;-69
2022/10/01 01:01:27;;;;;;;26.10;10.83;;;;;;;8.23;100.00;96065.84;5038283;28;20225;-69
2022/10/01 01:03:55;;;;;;;21.27;9.83;;;;;;;8.21;100.00;96070.41;5036874;28;20208;-69
2022/10/01 01:06:21;;;;;;;24.20;10.00;;;;;;;8.14;100.00;96066.81;5037131;28;20205;-69
2022/10/01 01:08:54;;;;;;;24.60;10.20;;;;;;;8.21;100.00;96063.38;5037848;28;20221;-69
2022/10/01 01:11:27;;;;;;;24.93;10.40;;;;;;;8.26;100.00;96055.00;5037783;28;20310;-69
2022/10/01 01:14:01;;;;;;;25.13;9.60;;;;;;;8.28;100.00;96047.78;5036831;28;20288;-69
2022/10/01 01:16:32;;;;;;;19.67;9.60;;;;;;;8.11;100.00;96056.66;5037840;28;20205;-69
2022/10/01 01:19:03;;;;;;;19.43;9.07;;;;;;;8.09;100.00;96050.72;5037013;28;20201;-69
2022/10/01 01:21:32;;;;;;;25.20;8.90;;;;;;;8.03;100.00;96054.84;5036983;28;20595;-69
2022/10/01 01:24:29;;;;;;;18.63;8.73;;;;;;;8.12;100.00;96043.34;5036450;28;20205;-69
2022/10/01 01:27:10;;;;;;;18.03;8.47;;;;;;;8.06;100.00;96045.81;5037914;28;20220;-69
2022/10/01 01:29:43;;;;;;;22.90;9.93;;;;;;;8.10;100.00;96049.75;5037219;28;20243;-71
2022/10/01 01:32:14;;;;;;;21.53;9.10;;;;;;;8.05;100.00;96046.81;5037046;28;20211;-71
2022/10/01 01:34:44;;;;;;;17.33;8.50;;;;;;;8.03;100.00;96039.09;5037229;28;20251;-71
2022/10/01 01:37:16;;;;;;;17.47;8.40;;;;;;;8.03;100.00;96040.88;5036928;28;20205;-71
2022/10/01 01:39:46;;;;;;;20.60;8.73;;;;;;;8.01;100.00;96035.81;5037061;28;20778;-68
2022/10/01 01:42:18;;;;;;;17.20;8.57;;;;;;;7.99;100.00;96042.22;5037228;28;20274;-69
2022/10/01 01:44:49;;;;;;;19.43;9.07;;;;;;;7.96;100.00;96032.06;5036883;28;20201;-69
2022/10/01 01:47:18;;;;;;;20.30;9.07;;;;;;;7.89;100.00;96033.69;5036870;28;20205;-69
2022/10/01 01:49:47;;;;;;;21.20;9.37;;;;;;;7.85;100.00;96040.25;5037274;28;20225;-69
2022/10/01 01:52:16;;;;;;;20.13;8.90;;;;;;;7.78;100.00;96035.81;5036890;28;20201;-69
2022/10/01 01:54:45;;;;;;;20.63;8.73;;;;;;;7.67;100.00;96029.13;5036387;28;20567;-69
2022/10/01 01:57:12;;;;;;;17.13;8.73;;;;;;;7.65;100.00;96027.63;5037604;28;20232;-69
2022/10/01 01:59:40;;;;;;;20.33;10.00;;;;;;;7.66;100.00;96027.50;5036957;28;20221;-69
2022/10/01 02:02:12;;;;;;;17.90;8.00;;;;;;;7.69;100.00;96027.16;5036501;28;20204;-69
2022/10/01 02:04:42;;;;;;;20.03;8.87;;;;;;;7.55;100.00;96029.63;5036301;28;20370;-69
2022/10/01 02:07:30;;;;;;;17.27;8.13;;;;;;;7.64;100.00;96026.84;5035311;28;20205;-69
2022/10/01 02:10:10;;;;;;;17.47;7.77;;;;;;;7.65;100.00;96019.78;5036450;28;20243;-69
2022/10/01 02:12:48;;;;;;;17.10;8.53;;;;;;;7.58;100.00;96017.00;5035971;28;20700;-69
2022/10/01 02:15:24;;;;;;;18.90;8.43;;;;;;;7.51;100.00;96017.81;5036105;28;20211;-69
2022/10/01 02:17:59;;;;;;;18.63;8.03;;;;;;;7.36;100.00;96015.03;5036413;28;20200;-69
2022/10/01 02:20:29;;;;;;;18.23;8.20;;;;;;;7.46;100.00;96013.06;5036659;28;20224;-69
2022/10/01 02:22:59;;;;;;;20.70;9.50;;;;;;;7.45;100.00;96008.81;5036200;28;20208;-69
2022/10/01 02:25:31;;;;;;;19.23;9.10;;;;;;;7.46;100.00;96005.19;5036691;28;20201;-69
2022/10/01 02:28:01;;;;;;;21.37;8.87;;;;;;;7.48;100.00;96007.66;5036622;28;20288;-69
2022/10/01 02:30:29;;;;;;;19.13;8.53;;;;;;;7.53;100.00;96005.38;5037057;28;20233;-69
2022/10/01 02:32:59;;;;;;;21.83;9.47;;;;;;;7.49;100.00;95997.00;5035400;28;20591;-69
2022/10/01 02:35:30;;;;;;;23.53;8.90;;;;;;;7.46;100.00;95999.97;5036970;28;20201;-69
2022/10/01 02:38:00;;;;;;;19.67;8.97;;;;;;;7.51;100.00;95999.44;5036401;28;21030;-69
2022/10/01 02:40:29;;;;;;;20.87;9.73;;;;;;;7.52;100.00;96001.94;5036170;28;20225;-69
2022/10/01 02:43:02;;;;;;;23.10;9.67;;;;;;;7.60;100.00;95999.31;5035970;28;20296;-69
2022/10/01 02:45:32;;;;;;;21.47;9.90;;;;;;;7.53;100.00;96000.94;5036596;28;20205;-69
2022/10/01 02:48:03;;;;;;;22.73;9.67;;;;;;;7.54;100.00;96010.44;5036209;28;20887;-69
2022/10/01 02:50:36;;;;;;;19.60;8.93;;;;;;;7.54;100.00;96005.19;5036333;28;20232;-69
2022/10/01 02:53:07;;;;;;;28.33;10.17;;;;;;;7.49;100.00;96004.88;5035886;28;20201;-69
2022/10/01 02:55:38;;;;;;;21.50;8.97;;;;;;;7.43;100.00;95995.06;5037132;28;20232;-69
2022/10/01 02:58:04;;;;;;;22.37;9.57;;;;;;;7.45;100.00;95994.88;5036662;28;21076;-69
2022/10/01 03:00:30;;;;;;;20.80;9.43;;;;;;;7.44;100.00;95990.63;5036611;28;20221;-69
2022/10/01 03:02:57;;;;;;;21.00;9.90;;;;;;;7.43;100.00;95987.19;5035214;28;20216;-69
2022/10/01 03:05:25;;;;;;;25.67;10.33;;;;;;;7.47;100.00;95977.19;5035819;28;20255;-69
2022/10/01 03:07:52;;;;;;;25.03;10.47;;;;;;;7.45;100.00;95987.84;5036824;28;20709;-69
2022/10/01 03:10:19;;;;;;;23.53;10.07;;;;;;;7.47;100.00;95982.41;5036314;28;20732;-69
2022/10/01 03:12:46;;;;;;;23.33;10.37;;;;;;;7.53;100.00;95982.56;5034931;28;20221;-69
2022/10/01 03:15:14;;;;;;;20.67;9.53;;;;;;;7.55;100.00;95979.81;5036214;28;20205;-69
2022/10/01 03:17:40;;;;;;;25.80;9.57;;;;;;;7.57;100.00;95983.88;5036688;28;20214;-69
2022/10/01 03:20:08;;;;;;;22.53;9.47;;;;;;;7.57;100.00;95986.50;5035788;28;20217;-69
2022/10/01 03:22:36;;;;;;;24.73;10.30;;;;;;;7.60;100.00;95983.56;5035480;28;20214;-69
2022/10/01 03:25:03;;;;;;;24.97;10.40;;;;;;;7.55;100.00;95987.69;5036026;28;20210;-71
2022/10/01 03:27:30;;;;;;;25.43;10.13;;;;;;;7.52;100.00;95991.44;5038982;28;20212;-69
2022/10/01 03:29:56;;;;;;;24.50;10.23;;;;;;;7.54;100.00;95988.66;5039381;28;20736;-69
2022/10/01 03:32:22;;;;;;;21.07;9.50;;;;;;;7.56;100.00;95989.28;5038899;28;20209;-69
2022/10/01 03:34:49;;;;;;;24.93;10.40;;;;;;;7.54;100.00;95992.09;5039255;28;20205;-69
2022/10/01 03:37:15;;;;;;;24.83;10.93;;;;;;;7.57;100.00;95983.88;5039433;28;20210;-69
2022/10/01 03:39:43;;;;;;;22.80;10.10;;;;;;;7.63;100.00;95987.66;5039279;28;20221;-69
2022/10/01 03:42:10;;;;;;;25.13;10.57;;;;;;;7.61;100.00;95982.59;5039019;28;20205;-69
2022/10/01 03:44:36;;;;;;;23.70;10.27;;;;;;;7.64;100.00;95979.63;5038670;28;20228;-69
2022/10/01 03:47:03;;;;;;;23.10;10.63;;;;;;;7.66;100.00;95975.06;5039587;28;20212;-69
2022/10/01 03:49:29;;;;;;;24.27;10.90;;;;;;;7.53;100.00;95966.84;5038797;28;20239;-69
2022/10/01 03:51:56;;;;;;;27.70;11.43;;;;;;;7.64;100.00;95970.97;5038631;28;20926;-69
2022/10/01 03:54:24;;;;;;;27.50;11.43;;;;;;;7.66;100.00;95969.81;5037959;28;20501;-69
2022/10/01 03:56:52;;;;;;;23.53;10.80;;;;;;;7.75;100.00;95968.81;5038918;28;20201;-69
2022/10/01 03:59:20;;;;;;;24.17;9.93;;;;;;;7.73;100.00;95972.59;5038216;28;20229;-69
2022/10/01 04:01:46;;;;;;;25.13;11.17;;;;;;;7.71;100.00;95964.06;5039018;28;20205;-69
2022/10/01 04:04:13;;;;;;;25.00;10.53;;;;;;;7.64;100.00;95952.59;5038903;28;20582;-69
2022/10/01 04:06:40;;;;;;;19.17;8.67;;;;;;;7.56;100.00;95953.44;5038537;28;20212;-69
2022/10/01 04:09:08;;;;;;;25.43;10.43;;;;;;;7.69;100.00;95964.22;5038836;28;20229;-69
2022/10/01 04:11:35;;;;;;;24.57;10.60;;;;;;;7.72;100.00;95956.00;5039288;28;20212;-69
2022/10/01 04:14:03;;;;;;;24.90;10.87;;;;;;;7.81;100.00;95964.69;5038229;28;20212;-69
2022/10/01 04:16:29;;;;;;;26.67;11.27;;;;;;;7.75;100.00;95966.19;5038099;28;20205;-69
2022/10/01 04:18:56;;;;;;;26.83;10.57;;;;;;;7.85;100.00;95953.69;5039526;28;20572;-69
2022/10/01 04:21:22;;;;;;;24.50;10.23;;;;;;;7.81;100.00;95949.78;5038873;28;20772;-69
2022/10/01 04:23:49;;;;;;;21.33;9.93;;;;;;;7.83;100.00;95942.56;5037598;28;20224;-69
2022/10/01 04:26:17;;;;;;;22.47;9.73;;;;;;;7.90;100.00;95938.28;5038438;28;20209;-69
2022/10/01 04:28:45;;;;;;;30.90;12.23;;;;;;;7.89;100.00;95931.38;5039002;28;20201;-69
2022/10/01 04:31:25;;;;;;;42.27;16.10;;;;;;;7.96;100.00;95942.84;5037969;28;20231;-69
2022/10/01 04:33:53;;;;;;;63.30;22.40;;;;;;;7.96;100.00;95938.41;5038190;28;20205;-69
2022/10/01 04:36:20;;;;;;;76.73;27.10;;;;;;;7.94;100.00;95935.16;5038607;28;20205;-69
2022/10/01 04:38:49;;;;;;;66.17;23.23;;;;;;;7.96;100.00;95927.13;5037527;28;20989;-69
2022/10/01 04:41:16;;;;;;;57.03;20.60;;;;;;;7.97;100.00;95929.56;5037925;28;20229;-69
2022/10/01 04:43:42;;;;;;;62.43;21.63;;;;;;;7.96;100.00;95933.16;5037665;28;20201;-69
2022/10/01 04:46:09;;;;;;;54.00;20.33;;;;;;;7.97;100.00;95929.56;5038116;28;20205;-69
2022/10/01 04:48:37;;;;;;;58.50;21.20;;;;;;;8.06;100.00;95930.38;5037995;28;20213;-69
2022/10/01 04:51:04;;;;;;;51.47;20.23;;;;;;;7.97;100.00;95929.56;5038094;28;20240;-69
2022/10/01 04:53:30;;;;;;;44.67;17.53;;;;;;;7.95;100.00;95926.28;5037174;28;20209;-69
2022/10/01 04:55:57;;;;;;;36.00;15.50;;;;;;;8.00;100.00;95934.47;5037537;28;20236;-69
2022/10/01 04:58:23;;;;;;;27.07;12.10;;;;;;;8.02;100.00;95936.94;5038359;28;20201;-69
2022/10/01 05:00:50;;;;;;;30.23;12.43;;;;;;;8.00;100.00;95933.66;5038091;28;20221;-69
2022/10/01 05:03:16;;;;;;;30.07;13.03;;;;;;;8.08;100.00;95944.13;5037080;28;20201;-69
2022/10/01 05:05:44;;;;;;;27.77;11.83;;;;;;;8.19;100.00;95939.38;5037646;28;20704;-69
2022/10/01 05:08:11;;;;;;;27.90;12.60;;;;;;;8.12;100.00;95937.53;5037584;28;20209;-69
2022/10/01 05:10:37;;;;;;;30.13;12.53;;;;;;;8.15;100.00;95942.50;5035940;28;20256;-69
2022/10/01 05:13:04;;;;;;;40.83;17.40;;;;;;;8.18;100.00;95948.22;5037083;28;20201;-68
2022/10/01 05:15:30;;;;;;;46.10;18.17;;;;;;;8.17;100.00;95956.25;5037877;28;20212;-68
2022/10/01 05:17:57;;;;;;;47.97;19.47;;;;;;;8.19;100.00;95951.69;5037482;28;20208;-68
2022/10/01 05:20:25;;;;;;;37.60;15.83;;;;;;;8.21;100.00;95947.91;5038021;28;20595;-68
2022/10/01 05:22:55;;;;;;;39.10;15.37;;;;;;;8.30;100.00;95944.25;5036624;28;20205;-68
2022/10/01 05:25:22;;;;;;;35.27;14.60;;;;;;;8.22;100.00;95954.78;5036785;28;20197;-68
2022/10/01 05:27:48;;;;;;;37.83;13.80;;;;;;;8.31;100.00;95953.78;5037626;28;20207;-67
2022/10/01 05:30:22;;;;;;;27.17;12.03;;;;;;;8.37;100.00;95953.06;5038114;28;20311;-68
2022/10/01 05:32:56;;;;;;;28.83;11.23;;;;;;;8.43;100.00;95956.84;5036355;28;20201;-68
2022/10/01 05:35:23;;;;;;;29.07;12.30;;;;;;;8.32;100.00;95957.19;5037360;28;20201;-68
2022/10/01 05:37:54;;;;;;;28.83;12.17;;;;;;;8.44;100.00;95959.28;5037401;28;20201;-68
2022/10/01 05:40:23;;;;;;;25.50;11.77;;;;;;;8.37;100.00;95952.25;5037046;28;20221;-69
2022/10/01 05:42:49;;;;;;;25.70;11.33;;;;;;;8.40;100.00;95954.53;5036138;28;21166;-69
2022/10/01 05:45:21;;;;;;;26.90;11.63;;;;;;;8.39;100.00;95952.88;5037351;28;20677;-69
2022/10/01 05:47:48;;;;;;;29.13;11.80;;;;;;;8.41;100.00;95943.06;5036828;28;20215;-69
2022/10/01 05:50:15;;;;;;;32.67;12.20;;;;;;;8.37;100.00;95944.38;5036078;28;20602;-69
2022/10/01 05:52:48;;;;;;;27.00;12.67;;;;;;;8.53;100.00;95942.50;5036102;28;20212;-68
2022/10/01 05:55:16;;;;;;;26.90;11.43;;;;;;;8.44;100.00;95940.06;5037094;28;20205;-68
2022/10/01 05:57:42;;;;;;;28.17;11.60;;;;;;;8.44;100.00;95945.31;5036205;28;20208;-67
2022/10/01 06:00:11;;;;;;;27.60;11.73;;;;;;;8.48;100.00;95950.09;5036703;28;20232;-68
2022/10/01 06:02:38;;;;;;;26.83;11.07;;;;;;;8.53;100.00;95942.50;5035799;28;20292;-68
2022/10/01 06:05:05;;;;;;;28.10;12.33;;;;;;;8.56;100.00;95932.47;5036426;28;20205;-68
2022/10/01 06:07:31;;;;;;;25.50;11.20;;;;;;;8.56;100.00;95940.34;5036760;28;20204;-68
2022/10/01 06:09:58;;;;;;;29.07;12.13;;;;;;;8.63;100.00;95941.31;5036508;28;20229;-68
2022/10/01 06:12:26;;;;;;;33.67;12.00;;;;;;;8.71;100.00;95941.25;5036319;28;20216;-67
2022/10/01 06:14:52;;;;;;;28.53;11.90;;;;;;;8.70;100.00;95939.59;5036566;28;21137;-68
2022/10/01 06:17:19;;;;;;;27.53;11.67;;;;;;;8.77;100.00;95935.31;5036656;28;20205;-68
2022/10/01 06:19:45;;;;;;;25.73;10.77;;;;;;;8.88;100.00;95941.97;5036843;28;20228;-69
2022/10/01 06:22:12;;;;;;;26.67;10.77;;;;;;;8.87;100.00;95930.66;5036521;28;20209;-69
2022/10/01 06:24:40;;;;;;;26.03;10.67;;;;;;;8.95;100.00;95932.41;5036352;28;20205;-69
2022/10/01 06:27:06;;;;;;;30.00;11.80;;;;;;;8.97;100.00;95938.31;5036182;28;20205;-69
2022/10/01 06:29:34;;;;;;;29.97;12.03;;;;;;;9.06;100.00;95935.44;5036457;28;20224;-68
2022/10/01 06:32:01;;;;;;;31.33;12.23;;;;;;;9.13;100.00;95928.50;5036653;28;20211;-68
2022/10/01 06:34:27;;;;;;;32.40;12.30;;;;;;;9.13;100.00;95925.88;5035974;28;20212;-69
2022/10/01 06:36:54;;;;;;;32.40;11.53;;;;;;;9.18;100.00;95923.53;5036053;28;20982;-69
2022/10/01 06:39:20;;;;;;;27.83;12.03;;;;;;;9.26;100.00;95919.03;5036542;28;20205;-68
2022/10/01 06:41:47;;;;;;;28.77;11.83;;;;;;;9.28;100.00;95922.31;5036275;28;20201;-69
2022/10/01 06:44:14;;;;;;;30.67;12.33;;;;;;;9.25;100.00;95911.31;5035396;28;20209;-68
2022/10/01 06:46:41;;;;;;;27.17;11.80;;;;;;;9.36;100.00;95913.53;5036525;28;20232;-69
2022/10/01 06:49:08;;;;;;;28.77;12.40;;;;;;;9.33;100.00;95905.97;5035923;28;20685;-68
2022/10/01 06:54:18;;;;;;;29.00;12.57;;;;;;;9.40;100.00;95910.34;5035291;28;20208;-69
2022/10/01 06:56:45;;;;;;;30.20;13.00;;;;;;;9.40;100.00;95901.66;5036801;28;20212;-69
2022/10/01 06:59:11;;;;;;;24.40;11.80;;;;;;;9.52;100.00;95901.06;5036741;28;20209;-68
2022/10/01 07:01:38;;;;;;;30.00;11.67;;;;;;;9.52;100.00;95895.81;5039602;28;20832;-69
2022/10/01 07:04:06;;;;;;;27.97;11.83;;;;;;;9.65;100.00;95888.13;5039423;28;20209;-68
2022/10/01 07:06:32;;;;;;;24.80;11.50;;;;;;;9.67;100.00;95890.56;5039546;28;20610;-69
2022/10/01 07:08:59;;;;;;;25.20;11.53;;;;;;;9.67;100.00;95887.94;5039592;28;20202;-68
2022/10/01 07:11:26;;;;;;;23.73;11.27;;;;;;;9.70;100.00;95877.88;5039994;28;20229;-68
2022/10/01 07:13:52;;;;;;;24.63;10.90;;;;;;;9.74;100.00;95879.94;5039050;28;20786;-68
2022/10/01 07:16:19;;;;;;;26.60;11.13;;;;;;;9.78;100.00;95878.59;5039803;28;20204;-67
2022/10/01 07:18:46;;;;;;;24.50;10.50;;;;;;;9.80;100.00;95871.34;5039560;28;20224;-68
2022/10/01 07:21:13;;;;;;;41.47;14.70;;;;;;;9.90;100.00;95865.78;5040010;28;20225;-68
2022/10/01 07:23:40;;;;;;;45.33;16.93;;;;;;;9.82;100.00;95865.88;5039209;28;20209;-69
2022/10/01 07:26:07;;;;;;;34.47;13.90;;;;;;;9.89;100.00;95861.53;5039626;28;20212;-69
2022/10/01 07:28:34;;;;;;;27.47;11.43;;;;;;;9.92;100.00;95869.06;5039602;28;20220;-68
2022/10/01 07:31:02;;;;;;;23.07;10.10;;;;;;;9.99;100.00;95873.47;5039674;28;20251;-68
2022/10/01 07:33:29;;;;;;;26.70;10.53;;;;;;;10.01;100.00;95873.28;5038588;28;20212;-69
2022/10/01 07:35:55;;;;;;;31.47;12.20;;;;;;;10.05;100.00;95872.72;5039532;28;20692;-69
2022/10/01 07:38:23;;;;;;;25.67;11.43;;;;;;;10.15;100.00;95877.72;5037439;28;20209;-68
2022/10/01 07:40:51;;;;;;;18.33;9.33;;;;;;;10.07;100.00;95875.16;5038177;28;20228;-69
2022/10/01 07:43:18;;;;;;;22.63;10.67;;;;;;;10.15;100.00;95868.00;5038595;28;20270;-68
2022/10/01 07:45:45;;;;;;;22.90;9.77;;;;;;;10.17;100.00;95873.91;5039236;28;20216;-68
2022/10/01 07:48:13;;;;;;;20.93;9.10;;;;;;;10.30;100.00;95870.59;5038627;28;20213;-68
2022/10/01 07:50:43;;;;;;;18.63;8.27;;;;;;;10.34;100.00;95862.16;5038330;28;20236;-68
2022/10/01 07:53:10;;;;;;;21.70;9.37;;;;;;;10.23;100.00;95854.72;5038379;28;20300;-68
2022/10/01 07:55:38;;;;;;;22.23;9.50;;;;;;;10.46;100.00;95860.66;5038042;28;20607;-68
2022/10/01 07:58:05;;;;;;;24.33;8.93;;;;;;;10.39;100.00;95867.69;5038450;28;20209;-68
2022/10/01 08:00:33;;;;;;;25.03;9.17;;;;;;;10.42;100.00;95869.94;5038011;28;20217;-68
2022/10/01 08:03:00;;;;;;;12.40;6.57;;;;;;;10.43;100.00;95868.94;5037458;28;20208;-68
2022/10/01 08:05:28;;;;;;;12.70;6.23;;;;;;;10.45;100.00;95869.56;5038023;28;20209;-68
2022/10/01 08:07:58;;;;;;;9.70;3.73;;;;;;;10.53;100.00;95864.22;5037840;28;20684;-69
2022/10/01 08:10:24;;;;;;;11.50;5.97;;;;;;;10.58;100.00;95875.81;5038529;28;20229;-68
2022/10/01 08:12:58;;;;;;;11.03;5.37;;;;;;;10.58;100.00;95870.56;5036981;28;20674;-68
2022/10/01 08:15:25;;;;;;;9.30;5.50;;;;;;;10.57;100.00;95870.75;5038635;28;20241;-68
2022/10/01 08:17:51;;;;;;;5.97;3.57;;;;;;;10.62;100.00;95871.00;5038092;28;20976;-69
2022/10/01 08:20:20;;;;;;;12.87;5.57;;;;;;;10.68;100.00;95871.06;5037534;28;20240;-68
2022/10/01 08:22:46;;;;;;;11.43;4.23;;;;;;;10.63;100.00;95867.38;5037291;28;20318;-68
2022/10/01 08:25:13;;;;;;;7.97;3.83;;;;;;;10.66;100.00;95880.16;5037935;28;20216;-68
2022/10/01 08:27:39;;;;;;;9.83;4.23;;;;;;;10.63;100.00;95867.38;5037635;28;20212;-68
2022/10/01 08:30:08;;;;;;;10.67;5.00;;;;;;;10.75;100.00;95864.03;5037215;28;20232;-68
2022/10/01 08:32:35;;;;;;;12.37;4.57;;;;;;;10.65;100.00;95868.78;5037246;28;20585;-68
2022/10/01 08:35:03;;;;;;;8.43;4.57;;;;;;;10.71;100.00;95867.25;5037581;28;20228;-68
2022/10/01 08:37:30;;;;;;;7.97;4.27;;;;;;;10.79;100.00;95873.19;5037607;28;20208;-68
2022/10/01 08:39:57;;;;;;;8.40;4.23;;;;;;;10.75;100.00;95861.41;5037540;28;20221;-68
2022/10/01 08:42:37;;;;;;;11.13;5.30;;;;;;;10.81;100.00;95875.69;5037109;28;20198;-68
2022/10/01 08:45:09;;;;;;;9.50;4.43;;;;;;;10.76;100.00;95862.25;5037170;28;20212;-68
2022/10/01 08:47:40;;;;;;;10.03;4.53;;;;;;;10.71;100.00;95865.41;5037954;28;20202;-68
2022/10/01 08:50:16;;;;;;;9.20;3.40;;;;;;;10.80;100.00;95866.13;5037573;28;20232;-68
2022/10/01 08:52:51;;;;;;;6.93;3.50;;;;;;;10.78;100.00;95870.75;5036928;28;20201;-68
2022/10/01 08:55:21;;;;;;;7.67;3.97;;;;;;;10.73;100.00;95862.59;5037755;28;20204;-68
2022/10/01 08:57:51;;;;;;;6.13;3.50;;;;;;;10.64;100.00;95868.97;5037055;28;20216;-68
2022/10/01 09:00:19;;;;;;;5.50;2.93;;;;;;;10.63;100.00;95849.72;5036449;28;20229;-68
2022/10/01 09:02:49;;;;;;;6.20;3.50;;;;;;;10.76;100.00;95857.78;5037085;28;21187;-68
2022/10/01 09:05:22;;;;;;;5.50;3.70;;;;;;;10.59;100.00;95860.81;5037578;28;20240;-68
2022/10/01 09:08:00;;;;;;;5.33;3.07;;;;;;;10.58;100.00;95870.56;5037094;28;20200;-68
2022/10/01 09:10:41;;;;;;;3.47;1.97;;;;;;;10.55;100.00;95870.94;5037492;28;20217;-68
2022/10/01 09:13:39;;;;;;;8.17;2.47;;;;;;;10.70;100.00;95868.25;5035522;28;20204;-68
2022/10/01 09:16:16;;;;;;;4.87;2.47;;;;;;;10.55;100.00;95851.66;5037406;28;20218;-68
2022/10/01 09:18:55;;;;;;;6.43;3.10;;;;;;;10.55;100.00;95854.28;5037360;28;20205;-68
2022/10/01 09:21:27;;;;;;;7.10;3.57;;;;;;;10.52;100.00;95849.41;5037043;28;20225;-68
2022/10/01 09:24:03;;;;;;;5.27;2.70;;;;;;;10.39;100.00;95849.25;5036661;28;20563;-69
2022/10/01 09:26:29;;;;;;;7.27;3.27;;;;;;;10.37;100.00;95844.19;5037597;28;20228;-68
2022/10/01 09:29:00;;;;;;;5.10;3.30;;;;;;;10.38;100.00;95853.69;5037361;28;20669;-68
2022/10/01 09:31:35;;;;;;;4.90;2.40;;;;;;;10.41;100.00;95844.59;5036139;28;20306;-68
2022/10/01 09:34:11;;;;;;;3.83;2.40;;;;;;;10.46;100.00;95843.06;5036943;28;20200;-68
2022/10/01 09:36:41;;;;;;;5.27;2.83;;;;;;;10.42;100.00;95856.78;5037208;28;20204;-69
2022/10/01 09:39:17;;;;;;;1.90;1.27;;;;;;;10.46;100.00;95856.25;5036906;28;20234;-68
2022/10/01 09:41:45;;;;;;;6.23;2.57;;;;;;;10.45;100.00;95864.28;5036955;28;20205;-68
2022/10/01 09:44:17;;;;;;;4.43;2.00;;;;;;;10.49;100.00;95876.13;5036553;28;20227;-68
2022/10/01 09:46:44;;;;;;;4.10;1.47;;;;;;;10.42;100.00;95867.31;5036238;28;20216;-67
2022/10/01 09:49:19;;;;;;;2.23;1.40;;;;;;;10.46;100.00;95858.88;5036786;28;20221;-68
2022/10/01 09:51:49;;;;;;;3.07;1.90;;;;;;;10.52;100.00;95859.94;5037274;28;20646;-68
2022/10/01 09:54:22;;;;;;;2.00;1.43;;;;;;;10.45;100.00;95861.66;5036495;28;20578;-68
2022/10/01 09:56:58;;;;;;;3.40;2.17;;;;;;;10.50;100.00;95867.19;5036990;28;20209;-68
2022/10/01 09:59:31;;;;;;;5.33;1.80;;;;;;;10.45;100.00;95856.41;5036999;28;20201;-68
2022/10/01 10:02:00;;;;;;;4.93;2.20;;;;;;;10.55;100.00;95851.66;5036510;28;20197;-68
2022/10/01 10:04:28;;;;;;;5.20;2.37;;;;;;;10.56;100.00;95855.94;5036574;28;20216;-68
2022/10/01 10:07:01;;;;;;;2.50;1.93;;;;;;;10.57;100.00;95837.28;5037482;28;20315;-68
2022/10/01 10:09:30;;;;;;;4.67;2.70;;;;;;;10.58;100.00;95853.94;5036085;28;20201;-67
2022/10/01 10:11:58;;;;;;;2.03;1.13;;;;;;;10.60;100.00;95862.47;5036108;28;20228;-67
2022/10/01 10:14:29;;;;;;;3.67;2.33;;;;;;;10.53;100.00;95856.31;5036960;28;20212;-68
2022/10/01 10:16:57;;;;;;;5.20;1.70;;;;;;;10.54;100.00;95860.59;5036494;28;20228;-68
2022/10/01 10:19:28;;;;;;;1.73;1.17;;;;;;;10.61;100.00;95872.81;5036593;28;20332;-69
2022/10/01 10:21:59;;;;;;;2.17;1.70;;;;;;;10.55;100.00;95875.38;5036789;28;20751;-67
2022/10/01 10:24:31;;;;;;;1.37;1.00;;;;;;;10.43;100.00;95876.84;5036160;28;20209;-68
2022/10/01 10:26:59;;;;;;;4.87;1.07;;;;;;;10.41;100.00;95881.47;5036091;28;20209;-68
2022/10/01 10:29:29;;;;;;;4.23;1.67;;;;;;;10.53;100.00;95880.03;5036620;28;20216;-68
2022/10/01 10:31:55;;;;;;;4.33;1.13;;;;;;;10.45;100.00;95885.38;5036642;28;20246;-68
2022/10/01 10:34:31;;;;;;;1.47;1.30;;;;;;;10.54;100.00;95882.47;5035989;28;20209;-68
2022/10/01 10:36:59;;;;;;;1.97;1.17;;;;;;;10.54;100.00;95887.72;5040383;28;20269;-67
2022/10/01 10:39:29;;;;;;;5.20;1.60;;;;;;;10.42;100.00;95891.84;5040637;28;20209;-68
2022/10/01 10:41:57;;;;;;;2.47;1.40;;;;;;;10.44;100.00;95895.09;5040721;28;20236;-68
2022/10/01 10:44:26;;;;;;;4.87;1.87;;;;;;;10.44;100.00;95883.75;5039935;28;20205;-67
2022/10/01 10:46:53;;;;;;;2.93;1.77;;;;;;;10.35;100.00;95893.56;5040829;28;20201;-68
2022/10/01 10:49:25;;;;;;;1.60;1.37;;;;;;;10.41;100.00;95892.00;5040318;28;20239;-68
2022/10/01 10:51:55;;;;;;;1.37;1.17;;;;;;;10.46;100.00;95892.28;5040270;28;20213;-68
2022/10/01 10:54:25;;;;;;;2.87;1.60;;;;;;;10.52;100.00;95899.47;5040082;28;20565;-69
2022/10/01 10:57:01;;;;;;;4.23;1.80;;;;;;;10.59;100.00;95898.53;5040595;28;20216;-69
2022/10/01 10:59:31;;;;;;;1.17;1.03;;;;;;;10.47;100.00;95900.00;5040223;28;20201;-69
2022/10/01 11:01:59;;;;;;;3.53;1.83;;;;;;;10.54;100.00;95906.19;5039883;28;20193;-69
2022/10/01 11:04:32;;;;;;;1.70;1.20;;;;;;;10.60;100.00;95894.91;5039184;28;20205;-69
2022/10/01 11:07:01;;;;;;;2.43;1.73;;;;;;;10.62;100.00;95913.16;5039575;28;20209;-69
2022/10/01 11:09:33;;;;;;;1.73;1.10;;;;;;;10.75;100.00;95908.84;5040203;28;20205;-69
2022/10/01 11:12:11;;;;;;;3.33;1.70;;;;;;;10.78;100.00;95913.75;5040048;28;20588;-68
2022/10/01 11:14:53;;;;;;;2.83;1.70;;;;;;;10.76;100.00;95909.69;5039014;28;20212;-68
2022/10/01 11:17:49;;;;;;;3.20;1.60;;;;;;;10.77;100.00;95917.41;5040083;28;20213;-68
2022/10/01 11:20:32;;;;;;;2.50;1.77;;;;;;;10.77;100.00;95916.56;5039366;28;20239;-67
2022/10/01 11:23:13;;;;;;;1.80;1.03;;;;;;;10.78;100.00;95915.56;5039077;28;20193;-69
2022/10/01 11:25:52;;;;;;;2.60;1.50;;;;;;;10.84;100.00;95928.00;5040222;28;21409;-69
2022/10/01 11:28:36;;;;;;;4.90;2.47;;;;;;;10.84;100.00;95923.53;5040505;28;20219;-67
2022/10/01 11:31:12;;;;;;;3.23;1.93;;;;;;;10.82;100.00;95920.28;5038726;28;20221;-68
2022/10/01 11:33:47;;;;;;;5.37;2.87;;;;;;;10.82;100.00;95914.19;5038689;28;20251;-68
2022/10/01 11:36:23;;;;;;;4.00;2.33;;;;;;;10.85;100.00;95908.56;5039853;28;20830;-68